Big Chimney, West Virginia
Current Conditions -  °F | °C
As of 12:54 PM on Friday 19 Dec 2014 (Local Time) from KCRW Reporting Station
Overcast Overcast  
Wind Chill: 31°   Ceiling: 2000
Heat Index: 31°   Visibility: 9mi
Dew Point: 21°   Wind: 0mph
Humidity: 67%   Direction: NA
Pressure: 30.25"   Gusts: NA
Location:  38.4204°N, 81.5903°W
Report Text: KCRW 191754Z 00000KT 9SM OVC020 M01/M06 A3025 RMK AO2 SLP251 T10061061 11006 21022 56010
Loading
Personal Weather Stations






























Interactive Weather Map New forecast layout! Learn more

10-Day Weather Forecast

Advertisements
Track Severe Weather on mobile